Weather reports worldwide

Advertisment
East malling, United Kingdom (99008): temperature & dewpoint: 17.02.2019 14:00:00 - 23.02.2019 14:00:00 (GMT)East malling, United Kingdom (99008): temperature -20cm: 17.02.2019 14:00:00 - 23.02.2019 14:00:00 (GMT)East malling, United Kingdom (99008): wind speed: 17.02.2019 14:00:00 - 23.02.2019 14:00:00 (GMT)East malling, United Kingdom (99008): wind direction: 17.02.2019 14:00:00 - 23.02.2019 14:00:00 (GMT)East malling, United Kingdom (99008): reduced air pressure: 17.02.2019 14:00:00 - 23.02.2019 14:00:00 (GMT)East malling, United Kingdom (99008): sunshine duration: 17.02.2019 14:00:00 - 23.02.2019 14:00:00 (GMT)East malling, United Kingdom (99008): precipitation: 17.02.2019 14:00:00 - 23.02.2019 14:00:00 (GMT)
Date & Time tt [°C] td [°C] tt -20cm [°C] ff [km/h] ff [kn] dd ppp [hPa] sd [min] rr [mm]
23.02.2019 14:00:00 - - - - - - - - -
23.02.2019 13:00:00 14,4 8,1 - 11 6 SSE 1034,1 60 0,0
23.02.2019 12:00:00 13,9 8,2 - 9 5 S 1034,5 60 0,0
23.02.2019 11:00:00 11,8 8,1 - 9 5 SSE 1034,9 60 0,0
23.02.2019 10:00:00 10,3 8,6 - 5 3 S 1035,0 60 0,0
23.02.2019 09:00:00 8,3 8,3 6,5 4 2 S 1034,9 60 0,0
23.02.2019 08:00:00 3,4 3,4 - 0 0 N 1035,0 36 0,0
23.02.2019 07:00:00 1,4 1,4 - 0 0 N 1034,8 0 0,0
23.02.2019 06:00:00 1,8 1,8 - 2 1 S 1034,5 0 0,0
23.02.2019 05:00:00 2,1 2,1 - 4 2 WSW 1034,5 0 0,0
23.02.2019 04:00:00 2,7 2,7 - 2 1 SSW 1034,5 0 0,0
23.02.2019 03:00:00 3,1 3,1 - 0 0 N 1035,1 0 0,0
23.02.2019 02:00:00 2,8 2,8 - 2 1 S 1035,5 0 0,0
23.02.2019 01:00:00 2,6 2,6 - 0 0 N 1035,6 0 0,0
23.02.2019 00:00:00 2,0 1,8 - 2 1 WSW 1035,9 - 0,0
22.02.2019 23:00:00 2,6 2,4 - 0 0 N 1036,1 0 0,0
22.02.2019 22:00:00 2,8 2,5 - 2 1 S 1036,2 0 0,0
22.02.2019 21:00:00 3,7 3,1 - 2 1 NW 1036,1 0 0,0
22.02.2019 20:00:00 5,0 4,5 - 4 2 NW 1035,8 0 0,0
22.02.2019 19:00:00 5,9 4,7 - 5 3 SSE 1035,8 0 0,0
22.02.2019 18:00:00 8,0 5,5 - 5 3 S 1035,5 6 0,0
22.02.2019 17:00:00 10,7 6,8 - 9 5 S 1035,4 60 0,0
22.02.2019 16:00:00 11,4 7,1 - 8 4 SSE 1035,7 60 0,0
22.02.2019 15:00:00 11,6 7,8 - 4 2 S 1036,0 60 0,0
22.02.2019 14:00:00 10,2 7,7 - 11 6 S 1036,1 60 0,0
22.02.2019 13:00:00 9,8 7,9 - 8 4 SSW 1036,2 54 0,0
22.02.2019 12:00:00 8,4 7,0 - 11 6 WSW 1036,2 60 0,0
22.02.2019 11:00:00 8,6 7,5 - 4 2 SSW 1035,9 42 0,0
22.02.2019 10:00:00 6,0 6,0 - 2 1 E 1036,1 18 0,0
22.02.2019 09:00:00 5,2 5,2 6,7 2 1 SW 1035,9 0 0,2
22.02.2019 08:00:00 4,6 4,6 - 2 1 SSW 1035,3 12 0,0
22.02.2019 07:00:00 5,0 5,0 - 5 3 SE 1034,6 0 0,0
22.02.2019 06:00:00 5,7 5,6 - 2 1 W 1034,6 0 0,0
22.02.2019 05:00:00 6,0 6,0 - 4 2 SSW 1034,1 0 0,0
22.02.2019 04:00:00 6,2 6,2 - 5 3 S 1033,6 0 0,0
22.02.2019 03:00:00 6,2 6,1 - 8 4 WSW 1033,4 0 0,0
22.02.2019 02:00:00 6,5 6,4 - 5 3 WSW 1033,1 0 0,0
22.02.2019 01:00:00 7,0 6,9 - 9 5 SW 1032,8 0 0,0
22.02.2019 00:00:00 6,8 6,7 - 5 3 SW 1032,6 - 0,0
21.02.2019 23:00:00 5,8 5,2 - 4 2 SW 1032,1 0 0,0
21.02.2019 22:00:00 7,4 6,4 - 5 3 S 1031,8 0 0,0
21.02.2019 21:00:00 8,6 7,5 - 13 7 WSW 1031,0 0 0,0
21.02.2019 20:00:00 8,6 7,5 - 8 4 SW 1030,3 0 0,0
21.02.2019 19:00:00 8,4 7,1 - 9 5 SSW 1030,0 0 0,0
21.02.2019 18:00:00 9,8 7,8 - 13 7 SW 1029,1 24 0,0
21.02.2019 17:00:00 12,5 7,9 - 11 6 SW 1028,2 60 0,0
21.02.2019 16:00:00 13,7 8,3 - 13 7 SW 1027,8 60 0,0
21.02.2019 15:00:00 13,7 8,4 - 11 6 SW 1027,4 60 0,0
21.02.2019 14:00:00 13,2 8,7 - 9 5 WSW 1027,1 36 0,0
21.02.2019 13:00:00 11,3 8,0 - 15 8 WSW 1027,2 6 0,0
21.02.2019 12:00:00 10,9 8,0 - 15 8 SW 1027,3 0 0,0
21.02.2019 11:00:00 10,1 8,0 - 16 9 WSW 1026,8 0 0,0
21.02.2019 10:00:00 9,4 7,9 - 13 7 WSW 1026,5 0 0,0
21.02.2019 09:00:00 8,6 7,7 6,0 5 3 SW 1026,0 0 0,0
21.02.2019 08:00:00 7,4 6,8 - 8 4 S 1025,1 6 0,0
21.02.2019 07:00:00 6,7 5,9 - 2 1 WNW 1024,4 0 0,0
21.02.2019 06:00:00 6,7 6,2 - 5 3 S 1023,8 0 0,0
21.02.2019 05:00:00 6,0 5,5 - 5 3 SSE 1023,7 0 0,0
21.02.2019 04:00:00 6,3 6,0 - 11 6 S 1023,8 0 0,0
21.02.2019 03:00:00 4,8 4,6 - 9 5 S 1024,0 0 0,0
21.02.2019 02:00:00 4,0 3,5 - 2 1 SSW 1024,2 0 0,0
21.02.2019 01:00:00 5,5 4,7 - 8 4 S 1024,0 0 0,0
21.02.2019 00:00:00 6,1 5,5 - 4 2 SSW 1023,7 - 0,0
20.02.2019 23:00:00 6,2 5,7 - 5 3 S 1023,3 0 0,0
20.02.2019 22:00:00 4,4 3,6 - 5 3 SSW 1023,2 0 0,0
20.02.2019 21:00:00 5,3 4,3 - 9 5 SSW 1022,9 0 0,0
20.02.2019 20:00:00 5,6 3,9 - 5 3 S 1022,4 0 0,0
20.02.2019 19:00:00 7,0 4,2 - 9 5 S 1022,1 0 0,0
20.02.2019 18:00:00 8,6 4,8 - 13 7 SW 1021,9 18 0,0
20.02.2019 17:00:00 9,8 5,4 - 15 8 SW 1021,4 48 0,0
20.02.2019 16:00:00 11,3 5,3 - 18 10 SW 1021,2 42 0,0
20.02.2019 15:00:00 - - - - - - - - -
20.02.2019 14:00:00 - - - - - - - - -
20.02.2019 13:00:00 - - - - - - - - -
20.02.2019 12:00:00 10,4 4,6 - 22 12 SW 1021,2 48 0,0
20.02.2019 11:00:00 10,8 5,0 - 22 12 SW 1021,0 60 0,0
20.02.2019 10:00:00 9,9 5,6 - 11 6 SSW 1020,7 60 0,0
20.02.2019 09:00:00 8,3 6,1 5,7 8 4 S 1020,5 36 0,0
20.02.2019 08:00:00 6,2 5,3 - 5 3 S 1020,3 18 0,0
20.02.2019 07:00:00 6,0 5,2 - 9 5 SSW 1019,6 0 0,0
20.02.2019 06:00:00 6,2 5,5 - 8 4 SSW 1019,4 0 0,0
20.02.2019 05:00:00 5,9 5,2 - 8 4 S 1019,4 0 0,0
20.02.2019 04:00:00 5,2 4,7 - 8 4 SSW 1019,3 0 0,0
20.02.2019 03:00:00 4,5 3,6 - 8 4 S 1019,5 0 0,0
20.02.2019 02:00:00 5,3 4,3 - 9 5 S 1019,9 0 0,0
20.02.2019 01:00:00 4,4 3,7 - 8 4 S 1020,2 0 0,0
20.02.2019 00:00:00 4,8 4,0 - 8 4 S 1020,1 - 0,0
19.02.2019 23:00:00 4,8 3,9 - 8 4 SSW 1020,3 0 0,0
19.02.2019 22:00:00 6,0 4,6 - 11 6 S 1020,3 0 0,0
19.02.2019 21:00:00 6,2 4,7 - 13 7 S 1020,1 0 0,0
19.02.2019 20:00:00 6,4 4,7 - 13 7 SSW 1020,1 0 0,0
19.02.2019 19:00:00 7,0 4,9 - 15 8 SSW 1020,0 0 0,0
19.02.2019 18:00:00 7,5 4,2 - 15 8 SSW 1019,5 18 0,0
19.02.2019 17:00:00 9,1 4,4 - 18 10 SW 1019,2 24 0,0
19.02.2019 16:00:00 9,9 3,6 - 11 6 WSW 1019,3 18 0,0
19.02.2019 15:00:00 10,3 2,6 - 15 8 WSW 1019,5 30 0,0
19.02.2019 14:00:00 10,7 3,0 - 15 8 WSW 1019,8 24 0,0
19.02.2019 13:00:00 10,6 3,2 - 18 10 WSW 1020,0 48 0,0
19.02.2019 12:00:00 10,0 4,6 - 15 8 WSW 1020,2 54 0,0
19.02.2019 11:00:00 8,2 4,9 - 18 10 WSW 1020,4 60 0,0
19.02.2019 10:00:00 7,0 4,9 - 15 8 WSW 1020,3 60 0,0
19.02.2019 09:00:00 4,6 3,5 5,7 13 7 SW 1020,0 60 0,0
19.02.2019 08:00:00 2,7 2,2 - 11 6 SSW 1019,6 42 0,0
19.02.2019 07:00:00 2,5 1,8 - 11 6 SSW 1018,9 0 0,2
19.02.2019 06:00:00 3,6 2,8 - 11 6 WSW 1018,4 0 0,0
19.02.2019 05:00:00 3,3 2,4 - 4 2 WSW 1018,2 0 0,0
19.02.2019 04:00:00 3,6 3,0 - 13 7 SW 1017,8 0 0,0
19.02.2019 03:00:00 3,4 3,1 - 9 5 SSW 1017,9 0 0,0
19.02.2019 02:00:00 4,0 3,6 - 11 6 SW 1017,7 0 0,0
19.02.2019 01:00:00 4,5 4,1 - 13 7 SW 1017,4 0 0,0
19.02.2019 00:00:00 4,9 4,2 - 9 5 WSW 1017,2 - 0,0
18.02.2019 23:00:00 5,2 4,2 - 9 5 WSW 1017,1 0 0,0
18.02.2019 22:00:00 5,2 4,0 - 9 5 SW 1016,9 0 0,0
18.02.2019 21:00:00 5,9 4,5 - 5 3 WSW 1016,6 0 0,0
18.02.2019 20:00:00 7,4 5,8 - 11 6 SW 1016,2 0 0,0
18.02.2019 19:00:00 7,7 5,3 - 13 7 SW 1015,8 0 0,0
18.02.2019 18:00:00 7,8 5,1 - 11 6 SW 1015,3 6 0,0
18.02.2019 17:00:00 8,1 5,8 - 11 6 SSW 1014,9 0 0,0
18.02.2019 16:00:00 8,3 5,6 - 11 6 SW 1015,0 0 0,2
18.02.2019 15:00:00 9,3 5,1 - 16 9 W 1015,1 0 0,0
18.02.2019 14:00:00 9,8 7,0 - 11 6 WSW 1015,1 0 0,0
18.02.2019 13:00:00 10,0 7,4 - 11 6 WSW 1015,5 0 0,0
18.02.2019 12:00:00 10,3 7,8 - 15 8 SW 1015,8 0 0,0
18.02.2019 11:00:00 10,0 8,2 - 8 4 SW 1015,8 0 0,0
18.02.2019 10:00:00 9,3 8,1 - 8 4 S 1016,2 0 0,0
18.02.2019 09:00:00 8,5 7,9 6,2 9 5 S 1016,4 24 0,0
18.02.2019 08:00:00 7,7 7,4 - 2 1 SSW 1016,3 6 0,0
18.02.2019 07:00:00 7,7 7,5 - 9 5 S 1016,0 0 0,0
18.02.2019 06:00:00 5,1 4,7 - 2 1 SSW 1016,1 0 0,0
18.02.2019 05:00:00 6,4 5,5 - 5 3 S 1016,1 0 0,0
18.02.2019 04:00:00 7,4 6,5 - 9 5 SSW 1016,2 0 0,0
18.02.2019 03:00:00 7,3 5,7 - 9 5 S 1016,3 0 0,0
18.02.2019 02:00:00 9,8 7,2 - 8 4 SSW 1016,8 0 0,0
18.02.2019 01:00:00 10,2 7,7 - 11 6 SW 1017,1 0 0,0
18.02.2019 00:00:00 10,0 7,9 - 11 6 SW 1016,9 - 0,0
17.02.2019 23:00:00 9,5 8,1 - 9 5 SSW 1016,6 0 0,0
17.02.2019 22:00:00 9,4 7,8 - 5 3 SW 1016,6 0 0,0
17.02.2019 21:00:00 9,0 7,2 - 9 5 S 1016,6 0 0,0
17.02.2019 20:00:00 9,3 7,5 - 8 4 S 1016,6 0 0,0
17.02.2019 19:00:00 9,7 7,5 - 9 5 S 1016,6 0 0,0
17.02.2019 18:00:00 10,7 7,9 - 13 7 SSW 1016,2 6 0,0
17.02.2019 17:00:00 11,0 7,4 - 11 6 SSW 1015,8 18 0,0
17.02.2019 16:00:00 11,9 7,2 - 21 11 SSW 1015,4 36 0,0
17.02.2019 15:00:00 13,0 6,8 - 21 11 SSW 1015,2 60 0,0
17.02.2019 14:00:00 13,0 6,2 - 18 10 SSW 1015,2 60 0,0

tt = temperature
td = dewpoint
tt -20cm = temperature -20cm
ff = wind speed
dd = wind direction
ppp = reduced air pressure
sd = sunshine duration
rr = precipitation

Next stations